sensor_id;sensor_type;location;lat;lon;timestamp;P1;durP1;ratioP1;P2;durP2;ratioP2
70981;SDS011;58640;51.320;9.456;2023-03-23T00:02:19;0.77;;;0.77;;
70981;SDS011;58640;51.320;9.456;2023-03-23T00:04:47;1.42;;;0.93;;
70981;SDS011;58640;51.320;9.456;2023-03-23T00:07:14;0.95;;;0.77;;
70981;SDS011;58640;51.320;9.456;2023-03-23T00:09:45;2.35;;;1.15;;
70981;SDS011;58640;51.320;9.456;2023-03-23T00:12:12;2.05;;;0.90;;
70981;SDS011;58640;51.320;9.456;2023-03-23T00:14:40;3.65;;;0.88;;
70981;SDS011;58640;51.320;9.456;2023-03-23T00:17:09;4.72;;;1.00;;
70981;SDS011;58640;51.320;9.456;2023-03-23T00:19:36;3.28;;;1.25;;
70981;SDS011;58640;51.320;9.456;2023-03-23T00:22:10;1.75;;;0.95;;
70981;SDS011;58640;51.320;9.456;2023-03-23T00:24:37;5.63;;;2.28;;
70981;SDS011;58640;51.320;9.456;2023-03-23T00:27:02;2.70;;;1.23;;
70981;SDS011;58640;51.320;9.456;2023-03-23T00:29:28;2.85;;;1.10;;
70981;SDS011;58640;51.320;9.456;2023-03-23T00:31:53;1.65;;;0.88;;
70981;SDS011;58640;51.320;9.456;2023-03-23T00:34:22;2.60;;;0.90;;
70981;SDS011;58640;51.320;9.456;2023-03-23T00:36:50;1.17;;;0.80;;
70981;SDS011;58640;51.320;9.456;2023-03-23T00:39:21;1.52;;;1.00;;
70981;SDS011;58640;51.320;9.456;2023-03-23T00:41:50;1.75;;;0.80;;
70981;SDS011;58640;51.320;9.456;2023-03-23T00:44:16;3.63;;;1.40;;
70981;SDS011;58640;51.320;9.456;2023-03-23T00:46:44;3.08;;;1.27;;
70981;SDS011;58640;51.320;9.456;2023-03-23T00:49:14;3.05;;;1.10;;
70981;SDS011;58640;51.320;9.456;2023-03-23T00:51:41;1.98;;;1.10;;
70981;SDS011;58640;51.320;9.456;2023-03-23T00:54:07;1.75;;;1.05;;
70981;SDS011;58640;51.320;9.456;2023-03-23T00:56:33;2.35;;;1.30;;
70981;SDS011;58640;51.320;9.456;2023-03-23T00:58:59;1.67;;;0.95;;
70981;SDS011;58640;51.320;9.456;2023-03-23T01:01:25;1.45;;;0.88;;
70981;SDS011;58640;51.320;9.456;2023-03-23T01:03:50;1.35;;;0.77;;
70981;SDS011;58640;51.320;9.456;2023-03-23T01:06:17;1.42;;;1.00;;
70981;SDS011;58640;51.320;9.456;2023-03-23T01:08:43;2.30;;;1.00;;
70981;SDS011;58640;51.320;9.456;2023-03-23T01:11:12;1.63;;;1.10;;
70981;SDS011;58640;51.320;9.456;2023-03-23T01:13:40;3.63;;;1.00;;
70981;SDS011;58640;51.320;9.456;2023-03-23T01:16:06;3.20;;;1.17;;
70981;SDS011;58640;51.320;9.456;2023-03-23T01:18:33;2.75;;;1.10;;
70981;SDS011;58640;51.320;9.456;2023-03-23T01:21:02;5.10;;;1.15;;
70981;SDS011;58640;51.320;9.456;2023-03-23T01:23:31;3.88;;;0.98;;
70981;SDS011;58640;51.320;9.456;2023-03-23T01:26:02;3.72;;;1.00;;
70981;SDS011;58640;51.320;9.456;2023-03-23T01:28:32;4.10;;;0.80;;
70981;SDS011;58640;51.320;9.456;2023-03-23T01:31:02;2.92;;;1.05;;
70981;SDS011;58640;51.320;9.456;2023-03-23T01:33:29;1.70;;;1.13;;
70981;SDS011;58640;51.320;9.456;2023-03-23T01:35:55;0.65;;;0.65;;
70981;SDS011;58640;51.320;9.456;2023-03-23T01:38:20;9.85;;;2.92;;
70981;SDS011;58640;51.320;9.456;2023-03-23T01:40:46;1.55;;;0.82;;
70981;SDS011;58640;51.320;9.456;2023-03-23T01:43:13;2.08;;;1.00;;
70981;SDS011;58640;51.320;9.456;2023-03-23T01:45:39;1.85;;;0.98;;
70981;SDS011;58640;51.320;9.456;2023-03-23T01:48:10;4.38;;;1.38;;
70981;SDS011;58640;51.320;9.456;2023-03-23T01:50:54;1.48;;;1.00;;
70981;SDS011;58640;51.320;9.456;2023-03-23T01:53:22;3.53;;;1.00;;
70981;SDS011;58640;51.320;9.456;2023-03-23T01:55:51;4.00;;;1.00;;
70981;SDS011;58640;51.320;9.456;2023-03-23T01:58:19;3.00;;;1.02;;
70981;SDS011;58640;51.320;9.456;2023-03-23T02:00:50;4.57;;;1.10;;
70981;SDS011;58640;51.320;9.456;2023-03-23T02:03:18;1.75;;;1.00;;
70981;SDS011;58640;51.320;9.456;2023-03-23T02:05:44;2.45;;;0.90;;
70981;SDS011;58640;51.320;9.456;2023-03-23T02:08:10;1.65;;;0.80;;
70981;SDS011;58640;51.320;9.456;2023-03-23T02:10:39;2.53;;;0.90;;
70981;SDS011;58640;51.320;9.456;2023-03-23T02:13:06;2.38;;;1.15;;
70981;SDS011;58640;51.320;9.456;2023-03-23T02:16:20;1.90;;;1.00;;
70981;SDS011;58640;51.320;9.456;2023-03-23T02:26:50;6.32;;;1.50;;
70981;SDS011;58640;51.320;9.456;2023-03-23T02:32:04;0.82;;;0.82;;
70981;SDS011;58640;51.320;9.456;2023-03-23T02:34:58;1.27;;;1.05;;
70981;SDS011;58640;51.320;9.456;2023-03-23T02:37:29;0.77;;;0.77;;
70981;SDS011;58640;51.320;9.456;2023-03-23T02:40:02;1.17;;;1.00;;
70981;SDS011;58640;51.320;9.456;2023-03-23T02:42:35;1.33;;;0.75;;
70981;SDS011;58640;51.320;9.456;2023-03-23T02:45:05;3.70;;;0.73;;
70981;SDS011;58640;51.320;9.456;2023-03-23T02:47:33;3.60;;;1.25;;
70981;SDS011;58640;51.320;9.456;2023-03-23T02:50:03;0.85;;;0.80;;
70981;SDS011;58640;51.320;9.456;2023-03-23T02:52:31;3.25;;;0.93;;
70981;SDS011;58640;51.320;9.456;2023-03-23T02:54:59;4.45;;;1.40;;
70981;SDS011;58640;51.320;9.456;2023-03-23T02:57:26;2.53;;;1.00;;
70981;SDS011;58640;51.320;9.456;2023-03-23T02:59:52;1.60;;;1.40;;
70981;SDS011;58640;51.320;9.456;2023-03-23T03:02:25;2.63;;;1.17;;
70981;SDS011;58640;51.320;9.456;2023-03-23T03:04:55;1.67;;;0.70;;
70981;SDS011;58640;51.320;9.456;2023-03-23T03:18:29;1.38;;;0.82;;
70981;SDS011;58640;51.320;9.456;2023-03-23T03:21:14;1.52;;;0.90;;
70981;SDS011;58640;51.320;9.456;2023-03-23T03:23:45;1.58;;;0.90;;
70981;SDS011;58640;51.320;9.456;2023-03-23T03:26:14;4.22;;;0.98;;
70981;SDS011;58640;51.320;9.456;2023-03-23T03:28:45;2.53;;;0.82;;
70981;SDS011;58640;51.320;9.456;2023-03-23T03:31:13;3.25;;;1.00;;
70981;SDS011;58640;51.320;9.456;2023-03-23T03:33:42;1.52;;;0.90;;
70981;SDS011;58640;51.320;9.456;2023-03-23T03:36:08;3.15;;;1.15;;
70981;SDS011;58640;51.320;9.456;2023-03-23T03:38:41;5.70;;;1.00;;
70981;SDS011;58640;51.320;9.456;2023-03-23T03:41:08;1.02;;;0.90;;
70981;SDS011;58640;51.320;9.456;2023-03-23T03:43:33;2.83;;;1.45;;
70981;SDS011;58640;51.320;9.456;2023-03-23T03:46:00;1.75;;;0.93;;
70981;SDS011;58640;51.320;9.456;2023-03-23T03:48:25;2.65;;;1.02;;
70981;SDS011;58640;51.320;9.456;2023-03-23T03:50:50;2.53;;;0.98;;
70981;SDS011;58640;51.320;9.456;2023-03-23T03:53:17;3.42;;;1.15;;
70981;SDS011;58640;51.320;9.456;2023-03-23T03:55:42;2.92;;;1.35;;
70981;SDS011;58640;51.320;9.456;2023-03-23T03:58:13;2.17;;;1.00;;
70981;SDS011;58640;51.320;9.456;2023-03-23T04:00:39;2.20;;;1.35;;
70981;SDS011;58640;51.320;9.456;2023-03-23T04:03:06;1.67;;;1.17;;
70981;SDS011;58640;51.320;9.456;2023-03-23T04:05:32;2.25;;;1.23;;
70981;SDS011;58640;51.320;9.456;2023-03-23T04:07:58;1.30;;;1.17;;
70981;SDS011;58640;51.320;9.456;2023-03-23T04:10:27;1.58;;;0.80;;
70981;SDS011;58640;51.320;9.456;2023-03-23T04:12:54;1.45;;;1.15;;
70981;SDS011;58640;51.320;9.456;2023-03-23T04:15:19;2.50;;;1.20;;
70981;SDS011;58640;51.320;9.456;2023-03-23T04:17:45;6.75;;;1.20;;
70981;SDS011;58640;51.320;9.456;2023-03-23T04:20:10;4.28;;;1.27;;
70981;SDS011;58640;51.320;9.456;2023-03-23T04:22:42;1.10;;;1.08;;
70981;SDS011;58640;51.320;9.456;2023-03-23T04:25:10;7.07;;;1.08;;
70981;SDS011;58640;51.320;9.456;2023-03-23T04:27:37;2.97;;;0.93;;
70981;SDS011;58640;51.320;9.456;2023-03-23T04:30:08;5.13;;;1.20;;
70981;SDS011;58640;51.320;9.456;2023-03-23T04:32:35;2.88;;;0.98;;
70981;SDS011;58640;51.320;9.456;2023-03-23T04:35:00;2.17;;;1.10;;
70981;SDS011;58640;51.320;9.456;2023-03-23T04:37:27;3.60;;;1.13;;
70981;SDS011;58640;51.320;9.456;2023-03-23T04:39:56;1.65;;;0.63;;
70981;SDS011;58640;51.320;9.456;2023-03-23T04:42:28;2.47;;;0.82;;
70981;SDS011;58640;51.320;9.456;2023-03-23T04:44:55;2.13;;;0.85;;
70981;SDS011;58640;51.320;9.456;2023-03-23T04:47:24;2.80;;;1.02;;
70981;SDS011;58640;51.320;9.456;2023-03-23T04:49:54;2.28;;;1.02;;
70981;SDS011;58640;51.320;9.456;2023-03-23T04:52:21;2.17;;;0.90;;
70981;SDS011;58640;51.320;9.456;2023-03-23T04:54:46;1.20;;;1.10;;
70981;SDS011;58640;51.320;9.456;2023-03-23T04:57:12;3.30;;;1.58;;
70981;SDS011;58640;51.320;9.456;2023-03-23T04:59:38;1.70;;;1.27;;
70981;SDS011;58640;51.320;9.456;2023-03-23T05:02:03;2.35;;;1.20;;
70981;SDS011;58640;51.320;9.456;2023-03-23T05:04:28;3.85;;;1.52;;
70981;SDS011;58640;51.320;9.456;2023-03-23T05:06:54;2.50;;;1.38;;
70981;SDS011;58640;51.320;9.456;2023-03-23T05:09:19;1.55;;;1.13;;
70981;SDS011;58640;51.320;9.456;2023-03-23T05:11:45;3.75;;;1.15;;
70981;SDS011;58640;51.320;9.456;2023-03-23T05:14:10;1.40;;;1.30;;
70981;SDS011;58640;51.320;9.456;2023-03-23T05:16:36;2.40;;;1.30;;
70981;SDS011;58640;51.320;9.456;2023-03-23T05:19:02;4.05;;;1.70;;
70981;SDS011;58640;51.320;9.456;2023-03-23T05:21:29;2.83;;;1.65;;
70981;SDS011;58640;51.320;9.456;2023-03-23T05:23:55;2.00;;;1.50;;
70981;SDS011;58640;51.320;9.456;2023-03-23T05:26:21;3.53;;;1.80;;
70981;SDS011;58640;51.320;9.456;2023-03-23T05:28:48;1.58;;;1.45;;
70981;SDS011;58640;51.320;9.456;2023-03-23T05:31:17;2.63;;;1.55;;
70981;SDS011;58640;51.320;9.456;2023-03-23T05:33:43;4.32;;;2.00;;
70981;SDS011;58640;51.320;9.456;2023-03-23T05:36:09;2.60;;;1.40;;
70981;SDS011;58640;51.320;9.456;2023-03-23T05:38:38;2.97;;;1.30;;
70981;SDS011;58640;51.320;9.456;2023-03-23T05:41:10;3.05;;;1.52;;
70981;SDS011;58640;51.320;9.456;2023-03-23T05:43:36;4.35;;;1.63;;
70981;SDS011;58640;51.320;9.456;2023-03-23T05:46:01;1.30;;;1.20;;
70981;SDS011;58640;51.320;9.456;2023-03-23T05:48:27;1.75;;;1.55;;
70981;SDS011;58640;51.320;9.456;2023-03-23T05:50:53;3.38;;;1.80;;
70981;SDS011;58640;51.320;9.456;2023-03-23T05:53:18;3.03;;;1.50;;
70981;SDS011;58640;51.320;9.456;2023-03-23T05:55:44;3.28;;;1.92;;
70981;SDS011;58640;51.320;9.456;2023-03-23T05:58:10;3.05;;;1.95;;
70981;SDS011;58640;51.320;9.456;2023-03-23T06:00:35;1.33;;;1.20;;
70981;SDS011;58640;51.320;9.456;2023-03-23T06:03:01;2.05;;;1.50;;
70981;SDS011;58640;51.320;9.456;2023-03-23T06:05:27;2.47;;;1.42;;
70981;SDS011;58640;51.320;9.456;2023-03-23T06:07:54;3.83;;;1.90;;
70981;SDS011;58640;51.320;9.456;2023-03-23T06:10:19;4.32;;;1.25;;
70981;SDS011;58640;51.320;9.456;2023-03-23T06:12:45;2.08;;;1.60;;
70981;SDS011;58640;51.320;9.456;2023-03-23T06:15:10;2.58;;;1.40;;
70981;SDS011;58640;51.320;9.456;2023-03-23T06:17:36;2.38;;;1.90;;
70981;SDS011;58640;51.320;9.456;2023-03-23T06:20:05;2.92;;;1.67;;
70981;SDS011;58640;51.320;9.456;2023-03-23T06:22:35;3.53;;;2.03;;
70981;SDS011;58640;51.320;9.456;2023-03-23T06:25:02;3.15;;;1.50;;
70981;SDS011;58640;51.320;9.456;2023-03-23T06:27:29;2.72;;;1.55;;
70981;SDS011;58640;51.320;9.456;2023-03-23T06:29:55;1.98;;;1.60;;
70981;SDS011;58640;51.320;9.456;2023-03-23T06:32:21;3.85;;;1.80;;
70981;SDS011;58640;51.320;9.456;2023-03-23T06:34:47;1.65;;;1.40;;
70981;SDS011;58640;51.320;9.456;2023-03-23T06:37:13;3.90;;;1.67;;
70981;SDS011;58640;51.320;9.456;2023-03-23T06:39:38;4.03;;;1.40;;
70981;SDS011;58640;51.320;9.456;2023-03-23T06:42:04;2.88;;;1.50;;
70981;SDS011;58640;51.320;9.456;2023-03-23T06:44:30;2.28;;;1.50;;
70981;SDS011;58640;51.320;9.456;2023-03-23T06:46:55;2.22;;;1.60;;
70981;SDS011;58640;51.320;9.456;2023-03-23T06:49:21;2.25;;;1.23;;
70981;SDS011;58640;51.320;9.456;2023-03-23T06:51:47;2.83;;;1.45;;
70981;SDS011;58640;51.320;9.456;2023-03-23T06:54:12;1.88;;;1.30;;
70981;SDS011;58640;51.320;9.456;2023-03-23T06:56:37;2.75;;;1.23;;
70981;SDS011;58640;51.320;9.456;2023-03-23T06:59:03;2.95;;;1.40;;
70981;SDS011;58640;51.320;9.456;2023-03-23T07:01:28;2.33;;;1.67;;
70981;SDS011;58640;51.320;9.456;2023-03-23T07:03:54;1.00;;;1.00;;
70981;SDS011;58640;51.320;9.456;2023-03-23T07:06:20;1.33;;;1.20;;
70981;SDS011;58640;51.320;9.456;2023-03-23T07:08:46;3.40;;;1.40;;
70981;SDS011;58640;51.320;9.456;2023-03-23T07:11:12;1.20;;;1.10;;
70981;SDS011;58640;51.320;9.456;2023-03-23T07:13:37;1.30;;;1.00;;
70981;SDS011;58640;51.320;9.456;2023-03-23T07:16:06;1.30;;;1.17;;
70981;SDS011;58640;51.320;9.456;2023-03-23T07:18:32;2.25;;;1.48;;
70981;SDS011;58640;51.320;9.456;2023-03-23T07:20:57;2.47;;;2.13;;
70981;SDS011;58640;51.320;9.456;2023-03-23T07:23:23;1.60;;;1.50;;
70981;SDS011;58640;51.320;9.456;2023-03-23T07:25:48;3.85;;;1.27;;
70981;SDS011;58640;51.320;9.456;2023-03-23T07:28:14;3.88;;;1.52;;
70981;SDS011;58640;51.320;9.456;2023-03-23T07:30:39;3.83;;;1.83;;
70981;SDS011;58640;51.320;9.456;2023-03-23T07:33:06;1.77;;;1.50;;
70981;SDS011;58640;51.320;9.456;2023-03-23T07:35:32;2.45;;;1.38;;
70981;SDS011;58640;51.320;9.456;2023-03-23T07:37:58;2.03;;;1.33;;
70981;SDS011;58640;51.320;9.456;2023-03-23T07:40:23;1.83;;;1.42;;
70981;SDS011;58640;51.320;9.456;2023-03-23T07:42:54;3.83;;;1.35;;
70981;SDS011;58640;51.320;9.456;2023-03-23T07:45:21;2.20;;;1.35;;
70981;SDS011;58640;51.320;9.456;2023-03-23T07:47:46;1.75;;;1.05;;
70981;SDS011;58640;51.320;9.456;2023-03-23T07:50:12;1.67;;;1.30;;
70981;SDS011;58640;51.320;9.456;2023-03-23T07:52:38;1.50;;;1.40;;
70981;SDS011;58640;51.320;9.456;2023-03-23T07:55:04;4.35;;;1.63;;
70981;SDS011;58640;51.320;9.456;2023-03-23T07:57:30;2.33;;;1.50;;
70981;SDS011;58640;51.320;9.456;2023-03-23T07:59:57;3.40;;;1.63;;
70981;SDS011;58640;51.320;9.456;2023-03-23T08:02:23;2.03;;;1.30;;
70981;SDS011;58640;51.320;9.456;2023-03-23T08:04:49;3.15;;;1.55;;
70981;SDS011;58640;51.320;9.456;2023-03-23T08:07:16;2.10;;;1.38;;
70981;SDS011;58640;51.320;9.456;2023-03-23T08:09:44;2.38;;;1.20;;
70981;SDS011;58640;51.320;9.456;2023-03-23T08:12:09;1.70;;;1.40;;
70981;SDS011;58640;51.320;9.456;2023-03-23T08:14:35;3.22;;;1.25;;
70981;SDS011;58640;51.320;9.456;2023-03-23T08:17:00;1.63;;;1.27;;
70981;SDS011;58640;51.320;9.456;2023-03-23T08:19:25;1.50;;;1.40;;
70981;SDS011;58640;51.320;9.456;2023-03-23T08:21:51;1.10;;;1.00;;
70981;SDS011;58640;51.320;9.456;2023-03-23T08:24:17;2.22;;;1.20;;
70981;SDS011;58640;51.320;9.456;2023-03-23T08:26:43;4.07;;;1.35;;
70981;SDS011;58640;51.320;9.456;2023-03-23T08:29:09;4.50;;;1.40;;
70981;SDS011;58640;51.320;9.456;2023-03-23T08:31:34;1.92;;;1.20;;
70981;SDS011;58640;51.320;9.456;2023-03-23T08:34:00;2.28;;;1.33;;
70981;SDS011;58640;51.320;9.456;2023-03-23T08:36:26;2.70;;;1.70;;
70981;SDS011;58640;51.320;9.456;2023-03-23T08:38:53;2.00;;;1.77;;
70981;SDS011;58640;51.320;9.456;2023-03-23T08:41:19;5.57;;;1.70;;
70981;SDS011;58640;51.320;9.456;2023-03-23T08:43:45;3.50;;;1.50;;
70981;SDS011;58640;51.320;9.456;2023-03-23T08:46:11;3.63;;;1.67;;
70981;SDS011;58640;51.320;9.456;2023-03-23T08:48:36;2.13;;;1.35;;
70981;SDS011;58640;51.320;9.456;2023-03-23T08:51:04;4.25;;;1.45;;
70981;SDS011;58640;51.320;9.456;2023-03-23T08:53:30;1.65;;;1.10;;
70981;SDS011;58640;51.320;9.456;2023-03-23T08:55:56;1.52;;;1.40;;
70981;SDS011;58640;51.320;9.456;2023-03-23T08:58:27;1.80;;;1.55;;
70981;SDS011;58640;51.320;9.456;2023-03-23T09:00:53;1.65;;;1.10;;
70981;SDS011;58640;51.320;9.456;2023-03-23T09:03:18;3.70;;;1.50;;
70981;SDS011;58640;51.320;9.456;2023-03-23T09:05:44;1.58;;;1.40;;
70981;SDS011;58640;51.320;9.456;2023-03-23T09:08:11;2.25;;;1.25;;
70981;SDS011;58640;51.320;9.456;2023-03-23T09:10:37;2.13;;;1.30;;
70981;SDS011;58640;51.320;9.456;2023-03-23T09:13:04;1.50;;;1.08;;
70981;SDS011;58640;51.320;9.456;2023-03-23T09:15:30;2.05;;;1.20;;
70981;SDS011;58640;51.320;9.456;2023-03-23T09:17:56;3.65;;;1.10;;
70981;SDS011;58640;51.320;9.456;2023-03-23T09:20:23;6.03;;;1.80;;
70981;SDS011;58640;51.320;9.456;2023-03-23T09:22:51;2.83;;;1.38;;
70981;SDS011;58640;51.320;9.456;2023-03-23T09:25:19;1.58;;;1.00;;
70981;SDS011;58640;51.320;9.456;2023-03-23T09:27:50;2.33;;;1.30;;
70981;SDS011;58640;51.320;9.456;2023-03-23T09:30:18;3.00;;;1.30;;
70981;SDS011;58640;51.320;9.456;2023-03-23T09:32:45;2.50;;;1.13;;
70981;SDS011;58640;51.320;9.456;2023-03-23T09:35:13;1.88;;;1.02;;
70981;SDS011;58640;51.320;9.456;2023-03-23T09:37:41;3.53;;;1.20;;
70981;SDS011;58640;51.320;9.456;2023-03-23T09:40:09;1.23;;;1.00;;
70981;SDS011;58640;51.320;9.456;2023-03-23T09:45:31;4.05;;;1.20;;
70981;SDS011;58640;51.320;9.456;2023-03-23T09:51:10;4.07;;;1.50;;
70981;SDS011;58640;51.320;9.456;2023-03-23T09:53:44;1.85;;;0.80;;
70981;SDS011;58640;51.320;9.456;2023-03-23T09:56:15;1.25;;;0.95;;
70981;SDS011;58640;51.320;9.456;2023-03-23T09:58:43;4.20;;;1.00;;
70981;SDS011;58640;51.320;9.456;2023-03-23T10:01:31;1.10;;;0.90;;
70981;SDS011;58640;51.320;9.456;2023-03-23T10:04:06;2.25;;;1.00;;
70981;SDS011;58640;51.320;9.456;2023-03-23T10:06:38;2.15;;;1.23;;
70981;SDS011;58640;51.320;9.456;2023-03-23T10:09:04;1.75;;;0.90;;
70981;SDS011;58640;51.320;9.456;2023-03-23T10:16:37;1.70;;;0.77;;
70981;SDS011;58640;51.320;9.456;2023-03-23T10:19:20;2.03;;;0.98;;
70981;SDS011;58640;51.320;9.456;2023-03-23T10:22:03;1.45;;;0.82;;
70981;SDS011;58640;51.320;9.456;2023-03-23T10:24:39;2.15;;;0.90;;
70981;SDS011;58640;51.320;9.456;2023-03-23T10:27:36;2.67;;;0.80;;
70981;SDS011;58640;51.320;9.456;2023-03-23T10:30:11;1.10;;;1.00;;
70981;SDS011;58640;51.320;9.456;2023-03-23T10:32:56;1.05;;;0.80;;
70981;SDS011;58640;51.320;9.456;2023-03-23T10:38:59;2.72;;;0.93;;
70981;SDS011;58640;51.320;9.456;2023-03-23T10:41:29;2.20;;;1.33;;
70981;SDS011;58640;51.320;9.456;2023-03-23T10:43:56;2.13;;;0.98;;
70981;SDS011;58640;51.320;9.456;2023-03-23T10:48:54;3.03;;;0.68;;
70981;SDS011;58640;51.320;9.456;2023-03-23T10:51:24;2.03;;;1.05;;
70981;SDS011;58640;51.320;9.456;2023-03-23T10:53:58;1.40;;;1.20;;
70981;SDS011;58640;51.320;9.456;2023-03-23T10:56:29;3.92;;;0.80;;
70981;SDS011;58640;51.320;9.456;2023-03-23T10:59:11;2.40;;;0.68;;
70981;SDS011;58640;51.320;9.456;2023-03-23T11:01:52;2.88;;;0.95;;
70981;SDS011;58640;51.320;9.456;2023-03-23T11:04:20;2.00;;;1.00;;
70981;SDS011;58640;51.320;9.456;2023-03-23T11:06:47;4.35;;;0.90;;
70981;SDS011;58640;51.320;9.456;2023-03-23T11:09:16;6.88;;;0.80;;
70981;SDS011;58640;51.320;9.456;2023-03-23T11:11:47;1.50;;;0.82;;
70981;SDS011;58640;51.320;9.456;2023-03-23T11:14:28;2.35;;;0.70;;
70981;SDS011;58640;51.320;9.456;2023-03-23T11:17:02;3.58;;;0.82;;
70981;SDS011;58640;51.320;9.456;2023-03-23T11:19:30;1.25;;;1.00;;
70981;SDS011;58640;51.320;9.456;2023-03-23T11:22:05;1.50;;;0.70;;
70981;SDS011;58640;51.320;9.456;2023-03-23T11:24:41;1.20;;;0.60;;
70981;SDS011;58640;51.320;9.456;2023-03-23T11:27:09;6.07;;;0.90;;
70981;SDS011;58640;51.320;9.456;2023-03-23T11:29:36;1.92;;;0.73;;
70981;SDS011;58640;51.320;9.456;2023-03-23T11:32:12;2.95;;;0.70;;
70981;SDS011;58640;51.320;9.456;2023-03-23T11:34:42;0.80;;;0.80;;
70981;SDS011;58640;51.320;9.456;2023-03-23T11:37:11;3.05;;;0.70;;
70981;SDS011;58640;51.320;9.456;2023-03-23T11:42:36;3.35;;;0.90;;
70981;SDS011;58640;51.320;9.456;2023-03-23T11:48:12;2.20;;;0.70;;
70981;SDS011;58640;51.320;9.456;2023-03-23T11:58:33;2.08;;;1.00;;
70981;SDS011;58640;51.320;9.456;2023-03-23T12:01:01;2.08;;;0.85;;
70981;SDS011;58640;51.320;9.456;2023-03-23T12:20:16;2.92;;;0.73;;
70981;SDS011;58640;51.320;9.456;2023-03-23T12:30:52;2.35;;;0.73;;
70981;SDS011;58640;51.320;9.456;2023-03-23T12:33:44;1.42;;;0.70;;
70981;SDS011;58640;51.320;9.456;2023-03-23T12:37:01;2.78;;;0.70;;
70981;SDS011;58640;51.320;9.456;2023-03-23T12:39:26;1.13;;;0.75;;
70981;SDS011;58640;51.320;9.456;2023-03-23T12:44:55;3.72;;;0.60;;
70981;SDS011;58640;51.320;9.456;2023-03-23T12:47:49;2.40;;;0.60;;
70981;SDS011;58640;51.320;9.456;2023-03-23T12:53:18;2.15;;;0.80;;
70981;SDS011;58640;51.320;9.456;2023-03-23T12:55:50;0.70;;;0.60;;
70981;SDS011;58640;51.320;9.456;2023-03-23T12:58:30;7.25;;;0.98;;
70981;SDS011;58640;51.320;9.456;2023-03-23T13:08:51;3.40;;;0.50;;
70981;SDS011;58640;51.320;9.456;2023-03-23T13:11:24;0.60;;;0.57;;
70981;SDS011;58640;51.320;9.456;2023-03-23T13:14:03;0.60;;;0.55;;
70981;SDS011;58640;51.320;9.456;2023-03-23T13:16:46;2.58;;;0.63;;
70981;SDS011;58640;51.320;9.456;2023-03-23T13:19:18;1.05;;;0.38;;
70981;SDS011;58640;51.320;9.456;2023-03-23T13:24:37;2.65;;;0.60;;
70981;SDS011;58640;51.320;9.456;2023-03-23T13:27:14;1.90;;;0.73;;
70981;SDS011;58640;51.320;9.456;2023-03-23T13:29:44;1.48;;;0.60;;
70981;SDS011;58640;51.320;9.456;2023-03-23T13:32:12;1.13;;;0.70;;
70981;SDS011;58640;51.320;9.456;2023-03-23T13:34:41;3.45;;;1.05;;
70981;SDS011;58640;51.320;9.456;2023-03-23T13:37:11;1.30;;;0.60;;
70981;SDS011;58640;51.320;9.456;2023-03-23T13:42:30;0.47;;;0.45;;
70981;SDS011;58640;51.320;9.456;2023-03-23T13:47:49;1.27;;;0.70;;
70981;SDS011;58640;51.320;9.456;2023-03-23T13:50:27;1.05;;;0.52;;
70981;SDS011;58640;51.320;9.456;2023-03-23T13:52:57;1.13;;;0.70;;
70981;SDS011;58640;51.320;9.456;2023-03-23T13:57:57;3.50;;;0.75;;
70981;SDS011;58640;51.320;9.456;2023-03-23T14:00:36;0.65;;;0.50;;
70981;SDS011;58640;51.320;9.456;2023-03-23T14:03:14;0.60;;;0.47;;
70981;SDS011;58640;51.320;9.456;2023-03-23T14:05:51;1.42;;;0.60;;
70981;SDS011;58640;51.320;9.456;2023-03-23T14:11:09;0.85;;;0.38;;
70981;SDS011;58640;51.320;9.456;2023-03-23T14:21:51;2.42;;;0.60;;
70981;SDS011;58640;51.320;9.456;2023-03-23T14:24:23;1.42;;;0.55;;
70981;SDS011;58640;51.320;9.456;2023-03-23T14:26:51;2.63;;;0.60;;
70981;SDS011;58640;51.320;9.456;2023-03-23T14:29:26;3.90;;;0.50;;
70981;SDS011;58640;51.320;9.456;2023-03-23T14:31:56;1.17;;;0.50;;
70981;SDS011;58640;51.320;9.456;2023-03-23T14:34:24;1.38;;;0.40;;
70981;SDS011;58640;51.320;9.456;2023-03-23T14:36:52;0.82;;;0.50;;
70981;SDS011;58640;51.320;9.456;2023-03-23T14:42:04;0.80;;;0.68;;
70981;SDS011;58640;51.320;9.456;2023-03-23T14:44:37;2.05;;;0.52;;
70981;SDS011;58640;51.320;9.456;2023-03-23T14:47:06;0.68;;;0.68;;
70981;SDS011;58640;51.320;9.456;2023-03-23T14:49:39;0.70;;;0.50;;
70981;SDS011;58640;51.320;9.456;2023-03-23T14:52:11;1.25;;;0.52;;
70981;SDS011;58640;51.320;9.456;2023-03-23T14:54:38;0.43;;;0.40;;
70981;SDS011;58640;51.320;9.456;2023-03-23T14:57:18;2.55;;;0.57;;
70981;SDS011;58640;51.320;9.456;2023-03-23T14:59:49;2.13;;;0.60;;
70981;SDS011;58640;51.320;9.456;2023-03-23T15:02:34;0.47;;;0.47;;
70981;SDS011;58640;51.320;9.456;2023-03-23T15:05:04;0.43;;;0.35;;
70981;SDS011;58640;51.320;9.456;2023-03-23T15:08:00;1.67;;;1.58;;
70981;SDS011;58640;51.320;9.456;2023-03-23T15:10:30;1.40;;;0.50;;
70981;SDS011;58640;51.320;9.456;2023-03-23T15:12:56;1.17;;;0.47;;
70981;SDS011;58640;51.320;9.456;2023-03-23T15:15:29;0.73;;;0.50;;
70981;SDS011;58640;51.320;9.456;2023-03-23T15:17:57;1.33;;;0.47;;
70981;SDS011;58640;51.320;9.456;2023-03-23T15:20:25;1.25;;;0.50;;
70981;SDS011;58640;51.320;9.456;2023-03-23T15:22:53;3.35;;;0.70;;
70981;SDS011;58640;51.320;9.456;2023-03-23T15:25:21;0.85;;;0.50;;
70981;SDS011;58640;51.320;9.456;2023-03-23T15:27:49;4.88;;;0.82;;
70981;SDS011;58640;51.320;9.456;2023-03-23T15:32:46;0.50;;;0.30;;
70981;SDS011;58640;51.320;9.456;2023-03-23T15:35:13;0.63;;;0.47;;
70981;SDS011;58640;51.320;9.456;2023-03-23T15:37:45;0.85;;;0.50;;
70981;SDS011;58640;51.320;9.456;2023-03-23T15:40:14;0.73;;;0.60;;
70981;SDS011;58640;51.320;9.456;2023-03-23T15:42:44;1.38;;;0.65;;
70981;SDS011;58640;51.320;9.456;2023-03-23T15:50:12;1.02;;;0.57;;
70981;SDS011;58640;51.320;9.456;2023-03-23T15:52:43;3.55;;;0.82;;
70981;SDS011;58640;51.320;9.456;2023-03-23T15:55:26;0.90;;;0.60;;
70981;SDS011;58640;51.320;9.456;2023-03-23T15:57:54;2.05;;;0.43;;
70981;SDS011;58640;51.320;9.456;2023-03-23T16:00:22;4.68;;;0.63;;
70981;SDS011;58640;51.320;9.456;2023-03-23T16:02:52;0.40;;;0.40;;
70981;SDS011;58640;51.320;9.456;2023-03-23T16:05:24;1.17;;;0.75;;
70981;SDS011;58640;51.320;9.456;2023-03-23T16:07:51;0.90;;;0.47;;
70981;SDS011;58640;51.320;9.456;2023-03-23T16:10:17;0.93;;;0.45;;
70981;SDS011;58640;51.320;9.456;2023-03-23T16:12:44;1.10;;;0.60;;
70981;SDS011;58640;51.320;9.456;2023-03-23T16:15:11;1.10;;;0.45;;
70981;SDS011;58640;51.320;9.456;2023-03-23T16:17:39;3.60;;;1.52;;
70981;SDS011;58640;51.320;9.456;2023-03-23T16:20:12;3.45;;;0.70;;
70981;SDS011;58640;51.320;9.456;2023-03-23T16:22:43;1.50;;;0.50;;
70981;SDS011;58640;51.320;9.456;2023-03-23T16:25:09;1.35;;;0.55;;
70981;SDS011;58640;51.320;9.456;2023-03-23T16:27:35;1.95;;;0.50;;
70981;SDS011;58640;51.320;9.456;2023-03-23T16:30:01;0.68;;;0.50;;
70981;SDS011;58640;51.320;9.456;2023-03-23T16:32:34;0.50;;;0.50;;
70981;SDS011;58640;51.320;9.456;2023-03-23T16:35:00;2.40;;;1.10;;
70981;SDS011;58640;51.320;9.456;2023-03-23T16:37:25;2.22;;;1.38;;
70981;SDS011;58640;51.320;9.456;2023-03-23T16:39:51;1.95;;;0.98;;
70981;SDS011;58640;51.320;9.456;2023-03-23T16:42:16;1.83;;;1.00;;
70981;SDS011;58640;51.320;9.456;2023-03-23T16:44:41;3.63;;;0.90;;
70981;SDS011;58640;51.320;9.456;2023-03-23T16:47:07;2.72;;;0.80;;
70981;SDS011;58640;51.320;9.456;2023-03-23T16:49:32;1.13;;;0.70;;
70981;SDS011;58640;51.320;9.456;2023-03-23T16:51:58;2.58;;;1.13;;
70981;SDS011;58640;51.320;9.456;2023-03-23T16:54:23;1.63;;;1.00;;
70981;SDS011;58640;51.320;9.456;2023-03-23T16:56:48;1.23;;;0.93;;
70981;SDS011;58640;51.320;9.456;2023-03-23T16:59:14;1.80;;;1.00;;
70981;SDS011;58640;51.320;9.456;2023-03-23T17:01:39;2.78;;;1.88;;
70981;SDS011;58640;51.320;9.456;2023-03-23T17:04:07;7.15;;;1.73;;